Time;durP1;ratioP1;P1;durP2;ratioP2;P2;SDS_P1;SDS_P2;PMS_P1;PMS_P2;Temp;Humidity;BMP_temperature;BMP_pressure;BME280_temperature;BME280_humidity;BME280_pressure;Samples;Min_cycle;Max_cycle;Signal;HPM_P1;HPM_P2
2023/03/28 00:00:29;;;;;;;5.88;3.70;;;8.60;99.90;;;;;;5015679;28;20470;-78
2023/03/28 00:02:55;;;;;;;5.85;3.85;;;8.60;99.90;;;;;;5015785;28;20041;-78
2023/03/28 00:05:22;;;;;;;5.95;3.83;;;8.50;99.90;;;;;;5033757;28;20037;-79
2023/03/28 00:07:50;;;;;;;4.55;3.60;;;8.40;99.90;;;;;;5016030;28;20034;-78
2023/03/28 00:10:16;;;;;;;4.57;3.70;;;8.30;99.90;;;;;;4999501;28;20494;-79
2023/03/28 00:12:42;;;;;;;6.00;3.78;;;8.30;99.90;;;;;;5024764;28;20041;-79
2023/03/28 00:15:09;;;;;;;5.25;3.35;;;8.40;99.90;;;;;;5013282;28;20030;-78
2023/03/28 00:17:35;;;;;;;5.07;3.38;;;8.40;99.90;;;;;;5012314;28;20387;-78
2023/03/28 00:20:06;;;;;;;7.00;3.60;;;8.30;99.90;;;;;;5012302;28;20041;-78
2023/03/28 00:22:32;;;;;;;;;;;8.40;99.90;;;;;;5012455;28;20048;-78
2023/03/28 00:24:58;;;;;;;4.97;3.20;;;8.40;99.90;;;;;;5013131;28;19909;-78
2023/03/28 00:27:24;;;;;;;6.82;3.38;;;8.50;99.90;;;;;;5026158;28;20382;-78
2023/03/28 00:29:51;;;;;;;4.00;3.58;;;8.50;99.90;;;;;;5032310;28;20037;-78
2023/03/28 00:32:17;;;;;;;6.15;3.55;;;8.40;99.90;;;;;;5031455;28;20029;-79
2023/03/28 00:34:43;;;;;;;4.88;3.70;;;8.60;99.90;;;;;;5033141;28;20022;-79
2023/03/28 00:37:09;;;;;;;5.10;3.60;;;8.60;99.90;;;;;;5033030;28;20490;-79
2023/03/28 00:39:36;;;;;;;5.90;3.95;;;8.70;99.90;;;;;;5031207;28;20483;-78
2023/03/28 00:42:02;;;;;;;5.53;3.72;;;8.70;99.90;;;;;;5015319;28;20033;-79
2023/03/28 00:44:47;;;;;;;5.95;3.90;;;8.70;99.90;;;;;;5033270;28;20041;-78
2023/03/28 00:47:42;;;;;;;5.72;3.63;;;8.90;99.90;;;;;;5032322;28;20026;-79
2023/03/28 00:50:19;;;;;;;4.78;3.83;;;9.00;99.90;;;;;;5031714;28;20394;-79
2023/03/28 00:52:54;;;;;;;6.45;3.97;;;8.90;99.90;;;;;;5031396;28;20044;-79
2023/03/28 00:55:27;;;;;;;5.80;3.80;;;8.70;99.90;;;;;;5032806;28;20382;-79
2023/03/28 00:57:53;;;;;;;6.53;3.90;;;8.70;99.90;;;;;;5031419;28;20029;-79
2023/03/28 01:00:19;;;;;;;4.97;3.47;;;8.60;99.90;;;;;;5031023;28;20053;-79
2023/03/28 01:02:49;;;;;;;5.32;4.07;;;8.60;99.90;;;;;;5031455;28;20038;-79
2023/03/28 01:05:17;;;;;;;5.75;3.90;;;8.70;99.90;;;;;;5015403;28;20033;-79
2023/03/28 01:07:45;;;;;;;5.13;3.63;;;8.80;99.90;;;;;;5031014;28;20034;-79
2023/03/28 01:10:12;;;;;;;6.78;4.05;;;8.80;99.90;;;;;;5015052;28;20055;-79
2023/03/28 01:12:39;;;;;;;5.43;3.80;;;8.90;99.90;;;;;;5023989;28;20053;-79
2023/03/28 01:15:06;;;;;;;5.45;3.60;;;8.90;99.90;;;;;;5011111;28;20392;-79
2023/03/28 01:17:32;;;;;;;5.03;3.60;;;9.00;99.90;;;;;;5011177;28;20030;-78
2023/03/28 01:20:05;;;;;;;7.68;3.75;;;9.00;99.90;;;;;;5011458;28;20549;-79
2023/03/28 01:22:34;;;;;;;5.88;3.90;;;9.00;99.90;;;;;;5012022;28;20062;-79
2023/03/28 01:25:09;;;;;;;4.05;3.65;;;8.70;99.90;;;;;;5012716;28;20503;-79
2023/03/28 01:27:53;;;;;;;5.82;3.90;;;8.60;99.90;;;;;;5027934;28;20033;-79
2023/03/28 01:30:39;;;;;;;5.90;3.80;;;8.50;99.90;;;;;;5031788;28;20047;-78
2023/03/28 01:33:29;;;;;;;5.03;4.03;;;8.40;99.90;;;;;;5030996;28;20026;-79
2023/03/28 01:36:34;;;;;;;4.45;4.05;;;8.30;99.90;;;;;;5030644;28;20029;-79
2023/03/28 01:39:22;;;;;;;6.60;3.88;;;8.30;99.90;;;;;;5031011;28;20032;-79
2023/03/28 01:42:12;;;;;;;4.50;3.70;;;8.20;99.90;;;;;;5034922;28;20037;-79
2023/03/28 01:44:53;;;;;;;4.87;3.77;;;8.00;99.90;;;;;;5036166;28;20033;-79
2023/03/28 01:47:46;;;;;;;7.95;4.22;;;7.90;99.90;;;;;;5036115;28;20030;-79
2023/03/28 01:50:23;;;;;;;4.85;4.13;;;7.90;99.90;;;;;;5032420;28;20044;-78
2023/03/28 01:53:09;;;;;;;5.40;3.97;;;7.90;99.90;;;;;;5019064;28;20036;-79
2023/03/28 01:55:40;;;;;;;4.53;3.90;;;7.90;99.90;;;;;;5018148;28;20042;-78
2023/03/28 01:58:21;;;;;;;5.22;4.00;;;7.90;99.90;;;;;;5034847;28;20099;-79
2023/03/28 02:01:14;;;;;;;;;;;7.90;99.90;;;;;;5018893;28;20036;-79
2023/03/28 02:03:43;;;;;;;9.63;3.93;;;7.90;99.90;;;;;;5033517;28;19920;-79
2023/03/28 02:06:09;;;;;;;6.10;3.87;;;7.90;99.90;;;;;;5017177;28;20188;-79
2023/03/28 02:08:36;;;;;;;7.35;3.92;;;7.70;99.90;;;;;;5016834;28;20045;-79
2023/03/28 02:11:03;;;;;;;8.82;3.95;;;7.70;99.90;;;;;;5017348;28;20522;-79
2023/03/28 02:13:39;;;;;;;5.57;4.10;;;7.70;99.90;;;;;;5003044;28;20053;-79
2023/03/28 02:16:05;;;;;;;4.38;3.92;;;7.60;99.90;;;;;;5013005;28;20049;-79
2023/03/28 02:18:36;;;;;;;4.30;3.70;;;7.70;99.90;;;;;;5013644;28;20467;-79
2023/03/28 02:21:12;;;;;;;6.32;4.05;;;7.70;99.90;;;;;;5012843;28;20487;-79
2023/03/28 02:23:39;;;;;;;5.97;3.90;;;7.70;99.90;;;;;;5013006;28;20538;-79
2023/03/28 02:26:05;;;;;;;8.33;4.00;;;7.70;99.90;;;;;;5000399;28;20033;-79
2023/03/28 02:28:32;;;;;;;7.33;3.97;;;7.60;99.90;;;;;;5016673;28;20053;-79
2023/03/28 02:31:00;;;;;;;6.63;3.70;;;7.50;99.90;;;;;;5016369;28;20033;-79
2023/03/28 02:33:38;;;;;;;5.73;3.80;;;7.40;99.90;;;;;;5000273;28;20060;-79
2023/03/28 02:36:16;;;;;;;5.73;3.77;;;7.60;99.90;;;;;;5023088;28;20030;-79
2023/03/28 02:38:50;;;;;;;5.80;4.13;;;7.80;99.90;;;;;;5021179;28;20444;-79
2023/03/28 02:41:54;;;;;;;6.80;3.97;;;7.90;99.90;;;;;;5030058;28;20037;-80
2023/03/28 02:44:49;;;;;;;5.85;4.25;;;7.90;99.90;;;;;;5014533;28;20045;-79
2023/03/28 02:47:21;;;;;;;6.13;3.85;;;7.80;99.90;;;;;;5013627;28;20041;-80
2023/03/28 02:49:54;;;;;;;6.82;4.47;;;7.50;99.90;;;;;;5014884;28;20042;-80
2023/03/28 02:52:35;;;;;;;10.80;4.03;;;7.40;99.90;;;;;;5011493;28;20037;-79
2023/03/28 02:55:16;;;;;;;7.20;4.30;;;7.30;99.90;;;;;;5019231;28;20471;-79
2023/03/28 02:57:49;;;;;;;7.93;4.05;;;7.20;99.90;;;;;;5034796;28;20497;-79
2023/03/28 03:00:17;;;;;;;5.78;4.05;;;7.40;99.90;;;;;;5016759;28;20386;-80
2023/03/28 03:02:46;;;;;;;6.20;4.03;;;7.60;99.90;;;;;;5017379;28;20033;-79
2023/03/28 03:05:13;;;;;;;6.18;4.63;;;7.80;99.90;;;;;;5016960;28;20022;-80
2023/03/28 03:07:40;;;;;;;5.53;4.28;;;7.80;99.90;;;;;;5034058;28;20033;-80
2023/03/28 03:10:08;;;;;;;6.30;4.07;;;7.90;99.90;;;;;;5013694;28;20026;-80
2023/03/28 03:12:35;;;;;;;5.03;3.97;;;7.90;99.90;;;;;;5013442;28;20041;-80
2023/03/28 03:15:02;;;;;;;4.67;3.97;;;7.70;99.90;;;;;;5013441;28;20049;-80
2023/03/28 03:17:29;;;;;;;5.35;3.95;;;7.70;99.90;;;;;;5013620;28;20034;-79
2023/03/28 03:19:55;;;;;;;5.43;3.90;;;7.70;99.90;;;;;;5013478;28;20371;-79
2023/03/28 03:22:22;;;;;;;7.50;4.50;;;7.60;99.90;;;;;;5013142;28;20084;-79
2023/03/28 03:24:49;;;;;;;6.03;4.17;;;7.60;99.90;;;;;;5030023;28;20037;-79
2023/03/28 03:27:19;;;;;;;5.03;4.50;;;7.70;99.90;;;;;;5029697;28;20494;-80
2023/03/28 03:29:45;;;;;;;6.03;4.15;;;7.80;99.90;;;;;;5013389;28;20030;-80
2023/03/28 03:32:11;;;;;;;6.10;4.13;;;7.70;99.90;;;;;;5013597;28;20034;-79
2023/03/28 03:34:40;;;;;;;6.33;4.00;;;7.70;99.90;;;;;;5029696;28;20041;-79
2023/03/28 03:37:08;;;;;;;7.23;4.07;;;7.70;99.90;;;;;;5013270;28;20074;-79
2023/03/28 03:39:35;;;;;;;5.38;3.92;;;7.70;99.90;;;;;;5012656;28;20391;-79
2023/03/28 03:42:02;;;;;;;6.50;4.07;;;7.70;99.90;;;;;;5016460;28;20050;-80
2023/03/28 03:44:28;;;;;;;6.60;4.13;;;7.80;99.90;;;;;;5032781;28;20029;-79
2023/03/28 03:46:56;;;;;;;5.28;4.25;;;7.80;99.90;;;;;;5033012;28;20038;-80
2023/03/28 03:49:22;;;;;;;6.93;4.17;;;7.70;99.90;;;;;;5016464;28;20021;-80
2023/03/28 03:51:48;;;;;;;6.10;4.63;;;7.70;99.90;;;;;;5033947;28;20036;-80
2023/03/28 03:54:14;;;;;;;6.10;4.17;;;7.40;99.90;;;;;;5033847;28;20048;-80
2023/03/28 03:56:40;;;;;;;7.88;4.10;;;7.40;99.90;;;;;;5032374;28;20041;-80
2023/03/28 03:59:06;;;;;;;4.63;4.10;;;7.50;99.90;;;;;;5033635;28;20029;-79
2023/03/28 04:01:33;;;;;;;5.47;4.33;;;7.50;99.90;;;;;;5031696;28;20030;-78
2023/03/28 04:03:59;;;;;;;7.30;4.40;;;7.10;99.90;;;;;;5031435;28;20041;-79
2023/03/28 04:06:25;;;;;;;5.60;5.00;;;7.10;99.90;;;;;;5031837;28;20037;-80
2023/03/28 04:08:51;;;;;;;6.70;4.67;;;7.10;99.90;;;;;;5032246;28;20056;-80
2023/03/28 04:11:17;;;;;;;7.23;4.40;;;7.10;99.90;;;;;;5033427;28;20030;-80
2023/03/28 04:13:43;;;;;;;6.83;4.43;;;7.00;99.90;;;;;;5017576;28;20367;-80
2023/03/28 04:16:12;;;;;;;8.00;4.67;;;6.90;99.90;;;;;;5012841;28;20034;-80
2023/03/28 04:18:39;;;;;;;8.98;4.43;;;6.90;99.90;;;;;;5028765;28;20029;-79
2023/03/28 04:21:08;;;;;;;7.90;4.25;;;6.90;99.90;;;;;;5012313;28;20037;-80
2023/03/28 04:23:37;;;;;;;6.70;4.47;;;6.70;99.90;;;;;;5008061;28;20054;-79
2023/03/28 04:26:03;;;;;;;8.63;4.33;;;6.70;99.90;;;;;;4976979;28;20376;-79
2023/03/28 04:28:30;;;;;;;5.77;4.27;;;6.60;99.90;;;;;;4993738;28;20034;-80
2023/03/28 04:30:59;;;;;;;6.07;4.60;;;6.50;99.90;;;;;;4992965;28;20033;-79
2023/03/28 04:33:26;;;;;;;7.17;4.40;;;6.50;99.90;;;;;;4992602;28;20031;-79
2023/03/28 04:35:55;;;;;;;10.40;5.00;;;6.50;99.90;;;;;;5008980;28;20353;-80
2023/03/28 04:38:25;;;;;;;6.97;4.50;;;6.60;99.90;;;;;;4992383;28;20467;-79
2023/03/28 04:40:56;;;;;;;6.90;4.90;;;6.70;99.90;;;;;;4992471;28;20466;-80
2023/03/28 04:43:26;;;;;;;7.32;4.45;;;6.60;99.90;;;;;;5019206;28;20037;-80
2023/03/28 04:45:53;;;;;;;5.07;3.90;;;6.50;99.90;;;;;;5014423;28;20029;-80
2023/03/28 04:48:19;;;;;;;5.90;4.30;;;6.40;99.90;;;;;;5032784;28;20040;-79
2023/03/28 04:50:45;;;;;;;7.20;4.53;;;6.20;99.90;;;;;;5031788;28;20479;-80
2023/03/28 04:53:12;;;;;;;5.43;3.90;;;6.20;99.90;;;;;;5031636;28;20038;-80
2023/03/28 04:55:38;;;;;;;7.63;4.63;;;6.20;99.90;;;;;;5031552;28;20033;-79
2023/03/28 04:58:05;;;;;;;8.50;4.60;;;6.10;99.90;;;;;;5015025;28;20033;-79
2023/03/28 05:00:31;;;;;;;5.37;4.27;;;6.00;99.90;;;;;;5030567;28;20034;-79
2023/03/28 05:03:03;;;;;;;5.97;4.60;;;6.00;99.90;;;;;;5014873;28;20053;-79
2023/03/28 05:05:30;;;;;;;9.13;5.17;;;6.00;99.90;;;;;;5032982;28;20045;-79
2023/03/28 05:07:57;;;;;;;6.03;4.53;;;6.10;99.90;;;;;;5031018;28;20025;-81
2023/03/28 05:10:23;;;;;;;8.00;4.43;;;6.20;99.90;;;;;;5014885;28;20054;-79
2023/03/28 05:12:49;;;;;;;4.70;4.20;;;6.10;99.90;;;;;;5023822;28;20517;-79
2023/03/28 05:15:15;;;;;;;6.43;4.60;;;6.10;99.90;;;;;;5010069;28;20045;-80
2023/03/28 05:17:41;;;;;;;6.43;4.73;;;6.20;99.90;;;;;;5011434;28;20037;-81
2023/03/28 05:20:09;;;;;;;5.97;5.00;;;6.10;99.90;;;;;;5011358;28;20482;-79
2023/03/28 05:22:36;;;;;;;9.10;4.93;;;6.30;99.90;;;;;;5011101;28;20057;-79
2023/03/28 05:25:03;;;;;;;7.07;4.93;;;6.30;99.90;;;;;;5012390;28;20033;-79
2023/03/28 05:27:29;;;;;;;5.80;4.53;;;6.40;99.90;;;;;;5012393;28;20053;-79
2023/03/28 05:29:55;;;;;;;7.33;4.63;;;6.40;99.90;;;;;;5011982;28;20052;-79
2023/03/28 05:32:21;;;;;;;5.30;4.47;;;6.50;99.90;;;;;;5010507;28;20030;-79
2023/03/28 05:34:48;;;;;;;6.50;4.83;;;6.50;99.90;;;;;;5012572;28;20026;-79
2023/03/28 05:37:14;;;;;;;5.27;4.43;;;6.40;99.90;;;;;;5011136;28;20034;-79
2023/03/28 05:39:40;;;;;;;7.80;4.90;;;6.40;99.90;;;;;;5011185;28;20025;-79
2023/03/28 05:42:07;;;;;;;7.20;4.50;;;6.40;99.90;;;;;;5014129;28;20022;-80
2023/03/28 05:44:33;;;;;;;6.53;4.87;;;6.60;99.90;;;;;;5030557;28;20033;-80
2023/03/28 05:47:00;;;;;;;9.23;4.70;;;6.60;99.90;;;;;;5030485;28;20041;-80
2023/03/28 05:49:26;;;;;;;6.37;4.67;;;6.60;99.90;;;;;;5031998;28;20030;-79
2023/03/28 05:51:52;;;;;;;7.70;4.50;;;6.60;99.90;;;;;;5032033;28;20044;-80
2023/03/28 05:54:18;;;;;;;7.07;5.00;;;6.60;99.90;;;;;;5030845;28;20061;-79
2023/03/28 05:56:44;;;;;;;9.03;4.87;;;6.50;99.90;;;;;;5014476;28;20046;-80
2023/03/28 05:59:10;;;;;;;7.70;4.57;;;6.70;99.90;;;;;;5031680;28;20025;-80
2023/03/28 06:01:38;;;;;;;6.47;4.33;;;6.70;99.90;;;;;;5013871;28;20044;-79
2023/03/28 06:04:04;;;;;;;6.23;4.60;;;6.70;99.90;;;;;;5030632;28;20033;-80
2023/03/28 06:06:32;;;;;;;7.23;4.60;;;6.80;99.90;;;;;;5030834;28;20041;-79
2023/03/28 06:08:58;;;;;;;8.30;4.80;;;6.70;99.90;;;;;;5030609;28;20053;-79
2023/03/28 06:11:25;;;;;;;8.57;4.97;;;6.80;99.90;;;;;;5031526;28;20033;-79
2023/03/28 06:13:52;;;;;;;6.87;4.80;;;6.70;99.90;;;;;;5014633;28;20026;-81
2023/03/28 06:16:18;;;;;;;7.13;4.93;;;6.90;99.90;;;;;;5011631;28;20037;-80
2023/03/28 06:18:44;;;;;;;6.93;4.70;;;7.10;99.90;;;;;;4994652;28;20045;-80
2023/03/28 06:21:10;;;;;;;10.63;5.27;;;7.20;99.90;;;;;;5010834;28;20486;-80
2023/03/28 06:23:36;;;;;;;9.63;5.20;;;7.10;99.90;;;;;;5010455;28;20054;-80
2023/03/28 06:26:03;;;;;;;8.18;5.43;;;7.10;99.90;;;;;;5010519;28;20455;-80
2023/03/28 06:28:29;;;;;;;9.67;5.70;;;7.00;99.90;;;;;;5014181;28;20475;-79
2023/03/28 06:30:56;;;;;;;8.13;4.93;;;7.10;99.90;;;;;;5014935;28;20030;-79
2023/03/28 06:33:22;;;;;;;8.90;5.57;;;7.10;99.90;;;;;;5014392;28;20070;-79
2023/03/28 06:35:48;;;;;;;7.60;5.35;;;7.00;99.90;;;;;;5015478;28;20026;-80
2023/03/28 06:38:14;;;;;;;7.95;5.70;;;6.80;99.90;;;;;;5015291;28;20033;-80
2023/03/28 06:40:40;;;;;;;8.15;6.20;;;6.70;99.90;;;;;;5015079;28;20041;-80
2023/03/28 06:43:06;;;;;;;10.30;5.40;;;6.60;99.90;;;;;;5025515;28;20070;-81
2023/03/28 06:45:32;;;;;;;9.97;6.07;;;6.70;99.90;;;;;;5033349;28;20025;-79
2023/03/28 06:47:58;;;;;;;9.83;6.13;;;6.80;99.90;;;;;;5033766;28;20032;-81
2023/03/28 06:50:24;;;;;;;9.83;5.47;;;6.80;99.90;;;;;;5034859;28;20036;-80
2023/03/28 06:52:50;;;;;;;10.18;5.57;;;6.80;99.90;;;;;;5033841;28;20033;-81
2023/03/28 06:55:16;;;;;;;13.38;6.28;;;6.70;99.90;;;;;;5034591;28;20030;-80
2023/03/28 06:57:43;;;;;;;6.70;5.28;;;6.70;99.90;;;;;;5033561;28;20036;-80
2023/03/28 07:00:10;;;;;;;10.10;5.60;;;6.60;99.90;;;;;;5034188;28;20029;-80
2023/03/28 07:02:36;;;;;;;8.83;5.83;;;6.60;99.90;;;;;;5016944;28;20072;-80
2023/03/28 07:05:02;;;;;;;9.17;5.20;;;6.60;99.90;;;;;;5034784;28;20052;-80
2023/03/28 07:07:28;;;;;;;8.40;5.23;;;6.60;99.90;;;;;;5034674;28;20026;-81
2023/03/28 07:09:54;;;;;;;7.70;4.57;;;6.70;99.90;;;;;;5016229;28;20398;-81
2023/03/28 07:12:21;;;;;;;6.27;4.47;;;6.70;99.90;;;;;;5012271;28;20034;-81
2023/03/28 07:14:47;;;;;;;6.05;4.80;;;6.70;99.90;;;;;;5013648;28;20045;-82
2023/03/28 07:17:13;;;;;;;10.07;5.22;;;6.90;99.90;;;;;;5013186;28;20053;-81
2023/03/28 07:19:39;;;;;;;6.47;4.43;;;7.00;99.90;;;;;;5014658;28;20360;-81
2023/03/28 07:22:05;;;;;;;9.27;4.63;;;7.10;99.90;;;;;;5014347;28;20054;-81
2023/03/28 07:24:31;;;;;;;5.80;4.88;;;7.10;99.90;;;;;;5014141;28;20510;-80
2023/03/28 07:26:57;;;;;;;6.78;4.90;;;7.00;99.90;;;;;;5014458;28;20026;-80
2023/03/28 07:29:23;;;;;;;6.82;4.97;;;7.00;99.90;;;;;;5014516;28;20034;-81
2023/03/28 07:31:49;;;;;;;7.35;5.15;;;7.10;99.90;;;;;;5014179;28;20037;-81
2023/03/28 07:34:17;;;;;;;7.28;5.65;;;7.40;99.90;;;;;;5013134;28;20037;-80
2023/03/28 07:36:43;;;;;;;8.43;5.28;;;7.60;99.90;;;;;;4997187;28;20513;-81
2023/03/28 07:39:09;;;;;;;8.52;5.32;;;7.80;99.90;;;;;;4979690;28;20045;-81
2023/03/28 07:41:35;;;;;;;8.40;5.40;;;8.00;99.90;;;;;;5014170;28;20033;-80
2023/03/28 07:44:01;;;;;;;9.52;5.53;;;8.30;99.90;;;;;;5013992;28;20046;-81
2023/03/28 07:46:27;;;;;;;9.60;4.13;;;8.30;99.90;;;;;;5025447;28;20036;-81
2023/03/28 07:48:55;;;;;;;9.02;5.18;;;8.40;99.90;;;;;;5032638;28;20025;-81
2023/03/28 07:51:21;;;;;;;5.60;5.00;;;8.40;99.90;;;;;;5016385;28;20458;-80
2023/03/28 07:53:47;;;;;;;8.38;5.50;;;8.40;99.90;;;;;;5033593;28;20038;-81
2023/03/28 07:56:13;;;;;;;6.05;5.05;;;8.30;99.90;;;;;;5032361;28;20034;-80
2023/03/28 07:58:40;;;;;;;7.28;5.25;;;8.60;99.90;;;;;;5032448;28;20048;-80
2023/03/28 08:01:10;;;;;;;7.35;5.20;;;8.80;99.90;;;;;;5015293;28;20395;-80
2023/03/28 08:03:37;;;;;;;6.90;4.72;;;9.00;99.90;;;;;;5016171;28;20033;-80
2023/03/28 08:06:04;;;;;;;6.97;4.50;;;9.30;99.90;;;;;;5032381;28;20030;-81
2023/03/28 08:08:30;;;;;;;6.10;4.97;;;9.40;99.90;;;;;;5031936;28;20026;-79
2023/03/28 08:10:56;;;;;;;7.13;5.10;;;9.60;99.90;;;;;;5015835;28;20512;-80
2023/03/28 08:13:23;;;;;;;7.55;5.13;;;9.50;99.90;;;;;;5002879;28;20041;-80
2023/03/28 08:15:53;;;;;;;7.20;5.15;;;9.50;99.90;;;;;;5013184;28;20026;-80
2023/03/28 08:18:23;;;;;;;9.33;5.13;;;9.30;99.90;;;;;;5012529;28;20022;-79
2023/03/28 08:20:49;;;;;;;9.63;4.85;;;9.20;99.90;;;;;;5012551;28;20017;-80
2023/03/28 08:23:15;;;;;;;5.90;4.68;;;9.10;99.90;;;;;;5011588;28;20045;-79
2023/03/28 08:25:43;;;;;;;7.88;4.35;;;9.00;99.90;;;;;;5012272;28;20026;-79
2023/03/28 08:28:10;;;;;;;9.07;5.03;;;8.90;99.90;;;;;;5012439;28;20026;-79
2023/03/28 08:30:36;;;;;;;9.20;6.22;;;9.00;99.90;;;;;;5011815;28;20034;-79
2023/03/28 08:33:05;;;;;;;7.22;5.07;;;9.00;99.90;;;;;;5013376;28;20045;-80
2023/03/28 08:35:31;;;;;;;5.53;4.93;;;9.00;99.90;;;;;;5013284;28;20041;-81
2023/03/28 08:37:57;;;;;;;5.50;4.88;;;9.00;99.90;;;;;;4995159;28;20042;-79
2023/03/28 08:40:24;;;;;;;5.43;4.30;;;8.90;99.90;;;;;;5012234;28;20041;-81
2023/03/28 08:43:02;;;;;;;4.20;3.80;;;8.90;99.90;;;;;;4995670;28;20034;-81
2023/03/28 08:45:37;;;;;;;6.70;4.30;;;8.90;99.90;;;;;;5015111;28;20410;-82
2023/03/28 08:48:03;;;;;;;7.68;4.40;;;8.90;99.90;;;;;;5032711;28;20034;-79
2023/03/28 08:50:34;;;;;;;4.47;4.05;;;8.90;99.90;;;;;;5031021;28;20033;-79
2023/03/28 08:53:00;;;;;;;4.40;3.97;;;9.00;99.90;;;;;;5014690;28;20037;-81
2023/03/28 08:55:34;;;;;;;4.53;4.13;;;9.00;99.90;;;;;;5015150;28;20034;-79
2023/03/28 08:58:00;;;;;;;7.57;4.60;;;9.00;99.90;;;;;;5031546;28;20030;-80
2023/03/28 09:00:31;;;;;;;6.00;4.65;;;9.10;99.90;;;;;;5031123;28;20475;-80
2023/03/28 09:02:57;;;;;;;8.00;4.78;;;9.20;99.90;;;;;;5015124;28;20382;-80
2023/03/28 09:05:48;;;;;;;5.75;4.53;;;9.30;99.90;;;;;;5014720;28;20042;-79
2023/03/28 09:08:46;;;;;;;5.03;4.20;;;9.40;99.90;;;;;;5031502;28;20029;-80
2023/03/28 09:11:21;;;;;;;5.00;4.60;;;9.40;99.90;;;;;;5031376;28;20037;-80
2023/03/28 09:14:09;;;;;;;9.35;5.25;;;9.70;99.90;;;;;;5015985;28;20371;-81
2023/03/28 09:17:00;;;;;;;6.63;5.43;;;10.00;99.90;;;;;;5010837;28;20033;-80
2023/03/28 09:19:29;;;;;;;;;;;10.40;99.90;;;;;;5011949;28;20026;-80
2023/03/28 09:22:09;;;;;;;5.70;4.65;;;10.50;99.90;;;;;;5044747;28;19917;-79
2023/03/28 09:25:12;;;;;;;6.47;5.20;;;10.50;99.90;;;;;;5012385;28;20038;-80
2023/03/28 09:28:03;;;;;;;8.13;5.50;;;10.70;99.90;;;;;;5011371;28;20038;-80
2023/03/28 09:30:38;;;;;;;5.95;5.30;;;11.00;99.90;;;;;;4995702;28;20049;-80
2023/03/28 09:33:15;;;;;;;6.30;5.53;;;11.00;99.90;;;;;;4995243;28;20030;-81
2023/03/28 09:35:41;;;;;;;6.10;5.07;;;11.30;99.90;;;;;;4994990;28;20506;-81
2023/03/28 09:38:20;;;;;;;5.65;5.15;;;11.20;99.90;;;;;;4994906;28;20018;-81
2023/03/28 09:40:46;;;;;;;6.40;5.53;;;11.40;99.90;;;;;;4995663;28;20026;-80
2023/03/28 09:43:18;;;;;;;5.95;5.30;;;11.50;99.90;;;;;;4990193;28;20068;-80
2023/03/28 09:46:01;;;;;;;6.40;5.80;;;11.50;99.90;;;;;;5030441;28;20042;-81
2023/03/28 09:48:32;;;;;;;7.93;5.53;;;11.70;99.90;;;;;;5030879;28;20486;-80
2023/03/28 09:50:58;;;;;;;7.40;5.63;;;11.50;99.90;;;;;;5014306;28;20021;-80
2023/03/28 09:53:32;;;;;;;6.50;5.05;;;11.60;99.90;;;;;;5030872;28;20034;-80
2023/03/28 09:56:05;;;;;;;11.07;6.25;;;11.70;99.90;;;;;;5014983;28;20025;-80
2023/03/28 09:58:58;;;;;;;9.65;5.55;;;12.00;99.90;;;;;;5030692;28;20033;-80
2023/03/28 10:01:28;;;;;;;5.70;5.20;;;12.30;99.90;;;;;;5029995;28;20036;-80
2023/03/28 10:03:55;;;;;;;5.47;5.05;;;12.40;99.90;;;;;;5035314;28;20370;-80
2023/03/28 10:06:29;;;;;;;5.82;5.35;;;12.00;99.90;;;;;;5018481;28;20029;-80
2023/03/28 10:09:14;;;;;;;6.90;5.53;;;11.60;99.90;;;;;;5034539;28;20387;-80
2023/03/28 10:11:59;;;;;;;6.97;5.10;;;11.40;99.90;;;;;;5035739;28;20026;-80
2023/03/28 10:14:32;;;;;;;5.18;4.78;;;11.40;99.90;;;;;;4980870;28;20043;-81
2023/03/28 10:17:11;;;;;;;16.83;5.78;;;11.30;99.90;;;;;;4994655;28;20037;-80
2023/03/28 10:19:40;;;;;;;6.32;5.72;;;11.30;99.90;;;;;;4994839;28;20033;-80
2023/03/28 10:22:10;;;;;;;6.35;5.13;;;11.20;99.90;;;;;;5011576;28;20518;-79
2023/03/28 10:24:38;;;;;;;5.18;4.68;;;11.00;99.90;;;;;;5028520;28;20042;-80
2023/03/28 10:27:16;;;;;;;6.32;4.53;;;11.10;99.90;;;;;;5014063;28;20053;-80
2023/03/28 10:29:42;;;;;;;7.65;4.97;;;11.00;99.90;;;;;;5014647;28;20471;-80
2023/03/28 10:32:26;;;;;;;7.18;4.93;;;11.00;99.90;;;;;;5013991;28;20483;-80
2023/03/28 10:35:15;;;;;;;8.85;4.78;;;11.10;99.90;;;;;;5014106;28;20475;-81
2023/03/28 10:37:41;;;;;;;5.38;4.85;;;11.00;99.90;;;;;;5014246;28;20030;-80
2023/03/28 10:40:16;;;;;;;4.90;4.40;;;11.10;99.90;;;;;;5014186;28;20038;-80
2023/03/28 10:42:44;;;;;;;5.45;4.78;;;11.10;99.90;;;;;;5023648;28;20467;-80
2023/03/28 10:45:22;;;;;;;6.38;4.78;;;11.30;99.90;;;;;;5033445;28;20478;-81
2023/03/28 10:47:49;;;;;;;6.22;5.00;;;11.50;99.90;;;;;;5017683;28;20030;-81
2023/03/28 10:50:36;;;;;;;5.55;5.05;;;11.90;99.90;;;;;;5033680;28;20033;-81
2023/03/28 10:53:26;;;;;;;5.43;4.90;;;12.10;99.90;;;;;;5018752;28;20021;-79
2023/03/28 10:56:12;;;;;;;5.75;5.13;;;11.90;99.90;;;;;;5019984;28;20041;-80
2023/03/28 10:58:43;;;;;;;5.63;4.93;;;11.90;99.90;;;;;;5033644;28;20052;-80
2023/03/28 11:01:12;;;;;;;6.65;5.20;;;12.00;99.90;;;;;;5017125;28;20033;-80
2023/03/28 11:03:59;;;;;;;7.05;5.35;;;11.90;99.90;;;;;;5034332;28;20034;-79
2023/03/28 11:06:37;;;;;;;7.88;5.40;;;12.20;99.90;;;;;;5034695;28;20360;-80
2023/03/28 11:09:06;;;;;;;5.78;5.20;;;12.30;99.90;;;;;;5033769;28;20545;-80
2023/03/28 11:11:44;;;;;;;6.38;5.75;;;12.60;99.90;;;;;;5034603;28;20032;-80
2023/03/28 11:14:32;;;;;;;5.93;5.43;;;13.00;99.90;;;;;;5014626;28;20030;-80
2023/03/28 11:17:32;;;;;;;7.70;5.40;;;13.30;99.90;;;;;;5012477;28;20033;-81
2023/03/28 11:20:23;;;;;;;6.90;6.28;;;13.60;99.90;;;;;;5005889;28;20058;-81
2023/03/28 11:23:14;;;;;;;6.20;5.60;;;13.90;99.90;;;;;;5014394;28;20061;-81
2023/03/28 11:25:56;;;;;;;10.63;6.55;;;14.20;99.90;;;;;;5013618;28;20030;-81
2023/03/28 11:28:32;;;;;;;6.28;5.60;;;14.20;99.90;;;;;;4997887;28;20026;-80
2023/03/28 11:30:58;;;;;;;6.55;5.93;;;14.40;99.90;;;;;;5012567;28;20042;-80
2023/03/28 11:33:49;;;;;;;6.30;5.70;;;14.50;99.90;;;;;;4997102;28;20049;-81
2023/03/28 11:36:20;;;;;;;7.73;5.90;;;14.60;99.90;;;;;;4996695;28;20042;-80
2023/03/28 11:38:52;;;;;;;7.15;6.32;;;14.60;99.90;;;;;;4997158;28;20618;-80
2023/03/28 11:41:20;;;;;;;7.90;5.80;;;14.70;99.90;;;;;;4980501;28;20034;-80
2023/03/28 11:44:24;;;;;;;7.43;6.10;;;14.80;99.90;;;;;;5013048;28;20068;-81
2023/03/28 11:46:57;;;;;;;7.07;6.35;;;14.90;99.90;;;;;;5023445;28;20037;-81
2023/03/28 11:49:24;;;;;;;7.13;6.43;;;15.20;99.90;;;;;;5033940;28;20022;-81
2023/03/28 11:51:53;;;;;;;6.57;5.88;;;15.30;99.90;;;;;;5033982;28;20037;-80
2023/03/28 11:54:34;;;;;;;6.95;6.32;;;15.30;99.90;;;;;;5032583;28;20025;-81
2023/03/28 11:57:21;;;;;;;7.72;6.22;;;15.50;99.90;;;;;;5000030;28;20401;-80
2023/03/28 11:59:49;;;;;;;7.55;6.60;;;15.60;99.90;;;;;;5015632;28;20034;-80
2023/03/28 12:02:41;;;;;;;6.55;6.00;;;15.70;99.90;;;;;;5032106;28;20037;-81
2023/03/28 12:05:10;;;;;;;6.60;6.00;;;15.70;99.90;;;;;;5032364;28;20045;-80
2023/03/28 12:07:51;;;;;;;7.40;6.70;;;15.60;99.90;;;;;;5032287;28;20025;-80
2023/03/28 12:10:25;;;;;;;8.98;6.47;;;15.40;99.90;;;;;;5032399;28;20033;-80
2023/03/28 12:13:10;;;;;;;6.38;5.78;;;15.20;99.90;;;;;;5023721;28;20026;-80
2023/03/28 12:15:42;;;;;;;7.45;5.93;;;15.30;99.90;;;;;;5011733;28;20041;-80
2023/03/28 12:18:20;;;;;;;6.35;5.80;;;15.40;99.90;;;;;;5013842;28;20026;-80
2023/03/28 12:20:59;;;;;;;6.18;5.55;;;15.50;99.90;;;;;;5030391;28;20026;-80
2023/03/28 12:23:39;;;;;;;6.40;5.90;;;15.50;99.90;;;;;;5029046;28;20050;-80
2023/03/28 12:26:34;;;;;;;6.32;5.72;;;15.40;99.90;;;;;;5028093;28;20471;-80
2023/03/28 12:29:07;;;;;;;7.00;6.32;;;15.40;99.90;;;;;;5011999;28;20029;-80
2023/03/28 12:31:50;;;;;;;7.45;5.43;;;15.40;99.90;;;;;;5028528;28;20038;-78
2023/03/28 12:34:28;;;;;;;6.40;5.90;;;15.50;99.90;;;;;;5013681;28;20034;-80
2023/03/28 12:37:03;;;;;;;5.70;5.30;;;15.50;99.90;;;;;;5011789;28;20049;-79
2023/03/28 12:39:42;;;;;;;6.95;6.35;;;15.50;99.90;;;;;;5028681;28;20046;-80
2023/03/28 12:42:10;;;;;;;6.03;5.45;;;15.60;99.90;;;;;;5016662;28;20017;-80
2023/03/28 12:44:49;;;;;;;6.85;5.80;;;15.70;99.90;;;;;;5015141;28;20037;-80
2023/03/28 12:47:33;;;;;;;6.45;5.78;;;15.70;99.90;;;;;;5014878;28;20521;-80
2023/03/28 12:49:59;;;;;;;6.10;5.50;;;15.90;99.90;;;;;;5017134;28;20030;-80
2023/03/28 12:52:32;;;;;;;6.47;5.85;;;16.00;99.90;;;;;;5032945;28;20033;-80
2023/03/28 12:55:00;;;;;;;6.55;5.88;;;15.80;99.90;;;;;;4999246;28;20037;-79
2023/03/28 12:57:42;;;;;;;6.13;5.63;;;15.90;99.90;;;;;;5015037;28;20402;-79
2023/03/28 13:00:21;;;;;;;6.45;5.45;;;15.80;99.90;;;;;;5032262;28;20029;-79
2023/03/28 13:03:13;;;;;;;6.63;5.80;;;15.80;99.90;;;;;;5032633;28;20018;-80
2023/03/28 13:06:05;;;;;;;7.47;5.20;;;15.80;99.90;;;;;;5013623;28;20121;-80
2023/03/28 13:08:52;;;;;;;7.50;6.80;;;15.80;99.90;;;;;;4971366;28;20046;-80
2023/03/28 13:11:36;;;;;;;6.10;5.60;;;15.90;99.90;;;;;;4971532;28;20610;-80
2023/03/28 13:14:23;;;;;;;6.38;5.80;;;16.00;99.90;;;;;;4937520;29;20381;-80
2023/03/28 13:16:56;;;;;;;6.40;5.90;;;16.10;99.90;;;;;;4951829;28;20039;-80
2023/03/28 13:19:37;;;;;;;6.30;5.70;;;16.00;99.90;;;;;;4952027;29;20031;-80